Time;durP1;ratioP1;P1;durP2;ratioP2;P2;SDS_P1;SDS_P2;PMS_P1;PMS_P2;Temp;Humidity;BMP_temperature;BMP_pressure;BME280_temperature;BME280_humidity;BME280_pressure;Samples;Min_cycle;Max_cycle;Signal;HPM_P1;HPM_P2
2022/11/24 00:01:58;;;;;;;4.20;2.53;;;8.60;60.20;;;;;;20787;6827;117219;-77
2022/11/24 00:04:24;;;;;;;6.47;2.63;;;8.50;60.80;;;;;;20599;6827;307470;-77
2022/11/24 00:06:52;;;;;;;7.70;2.70;;;8.70;60.80;;;;;;20799;6827;120242;-77
2022/11/24 00:09:16;;;;;;;5.37;2.40;;;8.80;61.00;;;;;;20588;6827;313069;-75
2022/11/24 00:11:42;;;;;;;5.43;2.65;;;8.80;61.00;;;;;;20582;6827;277322;-76
2022/11/24 00:14:08;;;;;;;5.32;2.55;;;9.10;60.20;;;;;;20812;6827;117833;-76
2022/11/24 00:16:34;;;;;;;6.13;2.90;;;9.10;60.00;;;;;;20791;6827;117471;-76
2022/11/24 00:19:00;;;;;;;4.43;2.03;;;8.90;60.20;;;;;;20807;6827;118251;-75
2022/11/24 00:21:26;;;;;;;3.23;2.33;;;8.70;60.40;;;;;;20792;6827;118520;-77
2022/11/24 00:23:52;;;;;;;5.65;2.72;;;8.60;60.30;;;;;;20586;6827;305952;-76
2022/11/24 00:26:18;;;;;;;5.87;3.10;;;8.60;60.30;;;;;;20805;6827;117203;-76
2022/11/24 00:28:44;;;;;;;4.90;2.70;;;8.60;59.90;;;;;;20568;6827;307463;-76
2022/11/24 00:31:13;;;;;;;8.50;2.78;;;8.70;59.50;;;;;;20803;6827;118182;-76
2022/11/24 00:33:38;;;;;;;7.10;2.80;;;8.60;59.30;;;;;;20561;6827;306520;-75
2022/11/24 00:36:04;;;;;;;6.60;2.90;;;8.70;59.10;;;;;;20600;6825;306577;-78
2022/11/24 00:38:29;;;;;;;7.53;3.07;;;8.90;58.00;;;;;;20601;6826;277460;-77
2022/11/24 00:40:55;;;;;;;6.65;3.05;;;9.20;57.50;;;;;;20821;6827;118143;-78
2022/11/24 00:43:21;;;;;;;5.27;2.97;;;9.00;57.50;;;;;;20606;6827;335685;-76
2022/11/24 00:45:47;;;;;;;5.85;2.90;;;9.20;57.70;;;;;;20584;6827;277225;-75
2022/11/24 00:48:13;;;;;;;4.78;2.50;;;9.30;57.20;;;;;;20599;6827;338588;-76
2022/11/24 00:50:39;;;;;;;8.30;2.73;;;9.30;57.20;;;;;;20809;6827;117582;-76
2022/11/24 00:53:04;;;;;;;6.57;2.80;;;9.10;57.30;;;;;;20595;6827;295155;-76
2022/11/24 00:55:31;;;;;;;6.32;2.40;;;8.90;57.90;;;;;;20783;6827;123036;-76
2022/11/24 00:57:56;;;;;;;7.93;2.33;;;8.90;57.90;;;;;;20805;6827;119104;-75
2022/11/24 01:00:22;;;;;;;4.43;2.00;;;8.60;58.40;;;;;;20811;6827;118713;-75
2022/11/24 01:02:49;;;;;;;5.13;2.70;;;8.20;58.90;;;;;;20598;6827;318948;-76
2022/11/24 01:05:14;;;;;;;4.28;2.65;;;8.40;59.10;;;;;;20592;6827;306337;-76
2022/11/24 01:07:40;;;;;;;3.87;2.10;;;8.70;58.30;;;;;;20790;6827;145405;-76
2022/11/24 01:10:06;;;;;;;5.57;2.70;;;8.50;58.10;;;;;;20809;6827;117195;-76
2022/11/24 01:12:31;;;;;;;5.50;2.72;;;8.30;58.70;;;;;;20592;6827;278695;-76
2022/11/24 01:14:57;;;;;;;6.87;2.70;;;8.40;59.50;;;;;;20586;6827;336203;-76
2022/11/24 01:17:22;;;;;;;5.47;2.40;;;8.60;59.10;;;;;;20799;6827;117417;-76
2022/11/24 01:19:48;;;;;;;4.97;2.30;;;8.50;58.90;;;;;;20584;6827;307534;-76
2022/11/24 01:22:14;;;;;;;6.65;2.37;;;8.60;59.40;;;;;;20805;6827;117421;-76
2022/11/24 01:24:39;;;;;;;9.33;2.40;;;8.50;59.20;;;;;;20805;6827;119692;-76
2022/11/24 01:27:05;;;;;;;7.33;2.60;;;8.20;59.60;;;;;;20598;6827;306339;-75
2022/11/24 01:29:30;;;;;;;4.32;2.10;;;8.30;60.00;;;;;;20793;6827;122314;-76
2022/11/24 01:31:56;;;;;;;4.68;2.33;;;8.20;59.70;;;;;;20808;6827;117506;-76
2022/11/24 01:34:22;;;;;;;4.72;2.20;;;8.00;60.10;;;;;;20815;6827;117399;-75
2022/11/24 01:36:47;;;;;;;5.10;2.37;;;7.80;60.60;;;;;;20598;6827;336292;-76
2022/11/24 01:39:13;;;;;;;6.82;2.58;;;8.00;61.10;;;;;;20817;6827;117398;-75
2022/11/24 01:41:38;;;;;;;6.18;2.20;;;8.00;60.70;;;;;;20585;6827;332278;-75
2022/11/24 01:44:21;;;;;;;5.87;2.20;;;8.10;60.80;;;;;;20599;6827;305899;-75
2022/11/24 01:46:46;;;;;;;8.27;2.53;;;8.40;60.00;;;;;;20593;6826;277123;-76
2022/11/24 01:49:28;;;;;;;4.27;2.10;;;8.70;59.10;;;;;;20592;6826;279877;-76
2022/11/24 01:51:57;;;;;;;3.37;1.50;;;8.90;58.50;;;;;;20782;6827;118254;-77
2022/11/24 01:54:23;;;;;;;4.40;1.70;;;8.30;59.30;;;;;;20794;6827;117875;-77
2022/11/24 01:56:49;;;;;;;4.22;2.25;;;8.30;59.20;;;;;;20559;6827;306945;-77
2022/11/24 01:59:14;;;;;;;4.80;2.10;;;8.40;59.80;;;;;;20583;6827;336061;-76
2022/11/24 02:01:40;;;;;;;2.75;1.50;;;8.60;59.50;;;;;;20790;6827;117295;-77
2022/11/24 02:04:06;;;;;;;3.83;1.62;;;8.30;60.50;;;;;;20807;6827;118088;-76
2022/11/24 02:06:32;;;;;;;4.13;1.40;;;8.30;59.90;;;;;;20795;6827;117315;-76
2022/11/24 02:08:58;;;;;;;2.78;1.30;;;8.10;60.40;;;;;;20800;6827;120449;-77
2022/11/24 02:11:25;;;;;;;3.28;1.52;;;7.80;61.10;;;;;;20796;6827;117174;-77
2022/11/24 02:13:51;;;;;;;5.73;1.53;;;7.70;61.00;;;;;;20787;6827;119484;-77
2022/11/24 02:16:16;;;;;;;2.87;1.37;;;7.60;61.30;;;;;;20794;6827;117790;-77
2022/11/24 02:18:42;;;;;;;3.62;1.67;;;7.60;61.60;;;;;;20809;6827;117184;-77
2022/11/24 02:21:07;;;;;;;3.50;1.60;;;7.50;61.80;;;;;;20812;6827;118475;-77
2022/11/24 02:24:00;;;;;;;3.10;1.07;;;7.40;62.00;;;;;;20785;6827;117555;-77
2022/11/24 02:26:38;;;;;;;3.23;1.50;;;7.40;62.10;;;;;;20585;6827;282961;-77
2022/11/24 02:29:05;;;;;;;3.87;1.73;;;7.70;62.20;;;;;;20597;6827;317664;-77
2022/11/24 02:31:31;;;;;;;4.50;1.57;;;8.10;61.00;;;;;;20799;6827;117382;-77
2022/11/24 02:33:56;;;;;;;1.77;1.00;;;8.10;60.40;;;;;;20821;6827;118405;-77
2022/11/24 02:36:22;;;;;;;1.43;0.90;;;7.90;60.80;;;;;;20807;6827;119178;-78
2022/11/24 02:38:48;;;;;;;3.05;1.55;;;7.70;61.20;;;;;;20600;6827;309034;-77
2022/11/24 02:41:13;;;;;;;3.55;1.62;;;7.80;61.20;;;;;;20604;6827;307771;-77
2022/11/24 02:43:39;;;;;;;2.97;1.50;;;8.20;60.00;;;;;;20777;6827;118716;-77
2022/11/24 02:46:05;;;;;;;2.10;1.50;;;8.10;59.80;;;;;;20582;6827;306805;-77
2022/11/24 02:48:31;;;;;;;1.87;1.42;;;8.20;59.70;;;;;;20803;6827;118631;-77
2022/11/24 02:50:57;;;;;;;1.80;1.05;;;7.90;60.00;;;;;;20808;6827;118499;-77
2022/11/24 02:53:22;;;;;;;2.70;1.67;;;7.90;60.00;;;;;;20595;6827;279203;-77
2022/11/24 02:55:48;;;;;;;3.55;1.67;;;8.00;60.20;;;;;;20780;6827;117516;-77
2022/11/24 02:58:14;;;;;;;3.40;1.53;;;8.10;60.10;;;;;;20594;6827;337448;-77
2022/11/24 03:00:40;;;;;;;2.80;1.63;;;8.00;60.00;;;;;;20807;6825;117287;-77
2022/11/24 03:03:06;;;;;;;2.83;1.70;;;8.00;59.90;;;;;;20598;6827;277776;-77
2022/11/24 03:05:33;;;;;;;4.07;1.50;;;8.40;59.40;;;;;;20575;6827;306827;-77
2022/11/24 03:07:59;;;;;;;3.37;1.60;;;8.40;59.30;;;;;;20802;6827;117612;-77
2022/11/24 03:10:24;;;;;;;2.10;0.93;;;8.30;59.20;;;;;;20816;6827;116084;-77
2022/11/24 03:12:50;;;;;;;3.23;1.50;;;8.00;59.80;;;;;;20596;6827;335081;-77
2022/11/24 03:15:16;;;;;;;3.28;1.58;;;8.10;60.20;;;;;;20595;6827;336791;-79
2022/11/24 03:17:41;;;;;;;1.80;1.20;;;8.40;59.80;;;;;;20589;6827;303000;-78
2022/11/24 03:20:08;;;;;;;3.35;1.60;;;8.50;58.90;;;;;;20813;6827;119654;-77
2022/11/24 03:22:34;;;;;;;1.50;1.40;;;8.30;59.90;;;;;;20812;6827;119193;-77
2022/11/24 03:25:00;;;;;;;3.20;1.58;;;8.20;59.40;;;;;;20595;6827;311314;-77
2022/11/24 03:27:25;;;;;;;4.53;1.62;;;8.30;59.70;;;;;;20811;6827;121201;-77
2022/11/24 03:29:51;;;;;;;2.78;1.27;;;8.20;59.50;;;;;;20583;6827;306689;-77
2022/11/24 03:32:17;;;;;;;2.15;1.12;;;8.30;59.40;;;;;;20787;6827;118150;-76
2022/11/24 03:34:42;;;;;;;5.53;1.40;;;8.30;59.30;;;;;;20697;6827;68058;-77
2022/11/24 03:37:09;;;;;;;2.33;1.40;;;8.10;59.70;;;;;;20571;6827;333386;-77
2022/11/24 03:39:35;;;;;;;1.30;1.10;;;8.20;59.80;;;;;;20783;6827;118527;-77
2022/11/24 03:42:00;;;;;;;3.13;1.20;;;8.20;59.60;;;;;;20800;6827;116829;-77
2022/11/24 03:44:26;;;;;;;2.07;1.10;;;8.00;60.00;;;;;;20806;6827;117650;-77
2022/11/24 03:46:51;;;;;;;4.53;1.43;;;7.80;60.30;;;;;;20590;6827;306888;-77
2022/11/24 03:49:21;;;;;;;2.20;1.37;;;8.00;60.40;;;;;;20806;6827;117572;-77
2022/11/24 03:51:46;;;;;;;3.57;1.40;;;8.00;60.00;;;;;;20577;6827;307300;-77
2022/11/24 03:54:13;;;;;;;2.70;1.20;;;8.10;59.60;;;;;;20803;6827;117559;-77
2022/11/24 03:56:39;;;;;;;2.37;1.43;;;8.30;59.50;;;;;;20600;6827;277738;-77
2022/11/24 03:59:05;;;;;;;4.33;1.50;;;8.30;59.50;;;;;;20811;6827;118287;-78
2022/11/24 04:01:30;;;;;;;4.23;1.33;;;8.30;59.30;;;;;;20788;6827;118629;-77
2022/11/24 04:03:56;;;;;;;2.35;1.23;;;8.10;59.70;;;;;;20809;6827;118336;-77
2022/11/24 04:06:22;;;;;;;2.70;1.40;;;7.70;60.80;;;;;;20809;6827;117930;-77
2022/11/24 04:08:48;;;;;;;2.43;1.33;;;7.70;60.40;;;;;;20802;6827;117003;-77
2022/11/24 04:12:42;;;;;;;3.90;1.70;;;7.80;60.80;;;;;;20600;6825;278797;-77
2022/11/24 04:13:40;;;;;;;4.50;1.67;;;7.80;60.80;;;;;;20521;6827;306390;-77
2022/11/24 04:16:05;;;;;;;4.45;1.77;;;8.20;59.90;;;;;;20589;6827;308895;-77
2022/11/24 04:18:31;;;;;;;3.63;1.30;;;8.50;58.90;;;;;;20805;6827;117161;-77
2022/11/24 04:20:56;;;;;;;2.90;1.50;;;8.40;58.60;;;;;;20574;6827;335508;-77
2022/11/24 04:23:22;;;;;;;3.53;1.20;;;8.40;58.50;;;;;;20811;6827;117898;-77
2022/11/24 04:25:48;;;;;;;5.28;1.70;;;8.30;58.50;;;;;;20794;6827;119080;-77
2022/11/24 04:28:13;;;;;;;3.67;1.80;;;8.10;59.00;;;;;;20592;6827;306027;-77
2022/11/24 04:30:43;;;;;;;4.20;1.42;;;8.20;59.30;;;;;;20821;6827;116194;-77
2022/11/24 04:33:04;;;;;;;3.37;1.67;;;8.20;59.30;;;;;;20818;6827;117162;-80
2022/11/24 04:35:30;;;;;;;2.03;1.40;;;8.00;59.80;;;;;;20804;6827;117619;-79
2022/11/24 04:37:55;;;;;;;4.93;2.00;;;7.90;60.30;;;;;;20611;6827;305758;-79
2022/11/24 04:40:22;;;;;;;5.25;2.05;;;8.50;59.10;;;;;;20576;6827;308508;-79
2022/11/24 04:42:55;;;;;;;4.62;1.75;;;8.80;57.90;;;;;;20605;6827;306452;-79
2022/11/24 04:45:22;;;;;;;3.77;1.53;;;8.70;57.70;;;;;;20778;6827;117587;-79
2022/11/24 04:47:48;;;;;;;4.00;1.43;;;8.50;58.20;;;;;;20789;6827;118624;-79
2022/11/24 04:50:14;;;;;;;3.47;1.40;;;8.40;58.10;;;;;;20611;6827;306424;-79
2022/11/24 04:52:39;;;;;;;4.73;1.70;;;8.60;58.30;;;;;;20605;6827;306288;-78
2022/11/24 04:55:05;;;;;;;5.07;2.42;;;8.80;57.60;;;;;;20597;6827;306119;-77
2022/11/24 04:57:30;;;;;;;4.30;1.70;;;9.10;56.90;;;;;;20790;6827;118546;-77
2022/11/24 04:59:57;;;;;;;5.77;1.90;;;8.60;57.10;;;;;;20813;6827;117361;-77
2022/11/24 05:02:22;;;;;;;4.87;1.70;;;8.60;57.10;;;;;;20792;6827;117465;-79
2022/11/24 05:04:48;;;;;;;5.70;2.08;;;8.40;57.70;;;;;;20595;6827;305727;-77
2022/11/24 05:07:16;;;;;;;5.55;2.00;;;8.40;57.80;;;;;;20813;6827;117200;-78
2022/11/24 05:12:30;;;;;;;6.27;1.93;;;8.20;58.20;;;;;;20828;6827;117379;-79
2022/11/24 05:14:54;;;;;;;6.30;2.15;;;7.90;58.60;;;;;;20597;6827;276933;-78
2022/11/24 05:17:21;;;;;;;5.32;2.10;;;8.10;58.70;;;;;;20611;6827;277476;-80
2022/11/24 05:19:46;;;;;;;9.33;2.33;;;8.40;58.00;;;;;;20586;6827;336795;-78
2022/11/24 05:22:12;;;;;;;6.05;1.90;;;8.70;57.10;;;;;;20607;6825;308829;-80
2022/11/24 05:24:37;;;;;;;5.07;1.87;;;8.90;56.50;;;;;;20815;6826;116963;-76
2022/11/24 05:27:04;;;;;;;5.80;1.83;;;8.50;57.10;;;;;;20807;6827;117110;-78
2022/11/24 05:29:29;;;;;;;6.33;2.20;;;8.40;57.00;;;;;;20790;6827;119458;-79
2022/11/24 05:31:56;;;;;;;6.37;2.03;;;8.20;57.60;;;;;;20818;6827;118247;-79
2022/11/24 05:34:22;;;;;;;4.40;1.50;;;8.00;58.20;;;;;;20808;6827;118612;-79
2022/11/24 05:36:55;;;;;;;5.60;1.90;;;7.80;58.60;;;;;;20602;6827;282651;-77
2022/11/24 05:39:19;;;;;;;6.40;1.97;;;7.90;58.80;;;;;;20817;6827;119239;-78
2022/11/24 05:41:45;;;;;;;4.15;1.90;;;8.00;58.70;;;;;;20794;6827;117606;-83
2022/11/24 05:44:11;;;;;;;6.90;2.27;;;8.10;59.10;;;;;;20605;6827;326946;-78
2022/11/24 05:46:37;;;;;;;5.50;2.17;;;8.00;59.00;;;;;;20601;6827;308471;-78
2022/11/24 05:49:06;;;;;;;6.00;2.20;;;8.40;58.40;;;;;;20611;6827;282015;-77
2022/11/24 05:51:32;;;;;;;4.43;2.03;;;8.70;57.60;;;;;;20586;6827;286780;-79
2022/11/24 05:53:58;;;;;;;6.00;2.37;;;9.20;56.40;;;;;;20604;6827;277089;-79
2022/11/24 05:56:23;;;;;;;6.33;2.20;;;9.10;56.30;;;;;;20592;6827;308286;-77
2022/11/24 05:58:49;;;;;;;10.43;2.28;;;9.30;55.90;;;;;;20594;6827;307505;-76
2022/11/24 06:01:16;;;;;;;6.53;1.98;;;9.40;55.50;;;;;;20809;6827;117828;-77
2022/11/24 06:03:43;;;;;;;7.43;2.50;;;9.20;55.70;;;;;;20583;6827;280913;-78
2022/11/24 06:06:10;;;;;;;5.43;2.43;;;9.20;55.90;;;;;;20594;6827;288954;-77
2022/11/24 06:08:36;;;;;;;4.97;2.30;;;9.50;55.40;;;;;;20603;6827;307146;-79
2022/11/24 06:11:15;;;;;;;7.67;2.40;;;9.50;55.30;;;;;;20585;6827;308028;-78
2022/11/24 06:13:27;;;;;;;5.45;2.40;;;9.60;54.90;;;;;;20548;6827;308818;-78
2022/11/24 06:15:54;;;;;;;6.13;1.90;;;9.70;54.50;;;;;;20821;6827;119351;-80
2022/11/24 06:18:19;;;;;;;5.90;2.28;;;9.50;54.90;;;;;;20606;6827;288548;-80
2022/11/24 06:20:46;;;;;;;5.07;1.95;;;9.20;55.30;;;;;;20833;6827;117673;-77
2022/11/24 06:23:12;;;;;;;6.70;2.10;;;9.20;55.30;;;;;;20803;6827;117258;-77
2022/11/24 06:25:37;;;;;;;6.07;2.17;;;8.90;55.90;;;;;;20786;6827;117919;-78
2022/11/24 06:28:04;;;;;;;5.83;1.80;;;8.50;57.50;;;;;;20804;6827;119569;-78
2022/11/24 06:30:29;;;;;;;6.60;2.60;;;8.50;57.10;;;;;;20595;6827;306458;-77
2022/11/24 06:32:55;;;;;;;4.87;2.20;;;8.60;57.30;;;;;;20808;6827;117084;-78
2022/11/24 06:35:20;;;;;;;8.63;2.80;;;8.60;57.10;;;;;;20600;6826;335378;-78
2022/11/24 06:37:46;;;;;;;5.33;2.10;;;8.80;57.20;;;;;;20797;6827;185291;-77
2022/11/24 06:40:11;;;;;;;5.80;2.45;;;8.70;57.00;;;;;;20823;6827;118310;-77
2022/11/24 06:42:37;;;;;;;8.27;2.93;;;8.60;58.00;;;;;;20601;6827;311698;-77
2022/11/24 06:45:03;;;;;;;7.95;2.70;;;9.00;56.90;;;;;;20600;6827;277731;-76
2022/11/24 06:47:29;;;;;;;5.77;2.17;;;9.00;56.80;;;;;;20785;6827;118142;-76
2022/11/24 06:49:55;;;;;;;7.78;2.62;;;9.00;56.70;;;;;;20604;6827;306637;-76
2022/11/24 06:52:20;;;;;;;7.57;2.53;;;9.10;56.80;;;;;;20814;6827;119477;-77
2022/11/24 06:54:46;;;;;;;6.97;2.60;;;9.20;56.60;;;;;;20547;6827;336572;-77
2022/11/24 06:57:12;;;;;;;6.27;2.47;;;9.20;56.60;;;;;;20807;6827;119645;-77
2022/11/24 06:59:38;;;;;;;8.90;3.00;;;9.20;56.60;;;;;;20572;6827;306894;-75
2022/11/24 07:02:03;;;;;;;11.63;2.83;;;9.30;56.30;;;;;;20814;6827;118730;-76
2022/11/24 07:04:29;;;;;;;6.30;2.40;;;9.20;56.20;;;;;;20798;6827;120773;-72
2022/11/24 07:06:55;;;;;;;8.82;3.00;;;9.00;56.50;;;;;;20577;6827;322328;-75
2022/11/24 07:09:20;;;;;;;8.57;3.30;;;9.20;56.30;;;;;;20603;6827;337207;-70
2022/11/24 07:11:46;;;;;;;7.20;3.13;;;9.50;55.60;;;;;;20576;6827;316301;-70
2022/11/24 07:14:12;;;;;;;9.40;3.20;;;9.70;54.80;;;;;;20592;6827;308419;-70
2022/11/24 07:16:38;;;;;;;6.80;2.78;;;9.80;54.50;;;;;;20808;6827;121791;-71
2022/11/24 07:19:04;;;;;;;7.07;2.90;;;9.80;55.10;;;;;;20808;6827;119695;-70
2022/11/24 07:21:29;;;;;;;8.00;2.87;;;9.50;55.00;;;;;;20565;6827;280453;-71
2022/11/24 07:23:55;;;;;;;8.57;3.30;;;9.80;54.70;;;;;;20568;6827;286122;-70
2022/11/24 07:26:21;;;;;;;8.90;2.67;;;9.80;54.60;;;;;;20595;6827;280003;-70
2022/11/24 07:28:47;;;;;;;9.10;3.40;;;10.30;52.90;;;;;;20589;6827;308612;-70
2022/11/24 07:31:15;;;;;;;10.43;3.10;;;10.20;52.80;;;;;;20587;6827;306398;-70
2022/11/24 07:33:40;;;;;;;8.63;2.43;;;10.40;52.70;;;;;;20776;6827;118719;-71
2022/11/24 07:36:06;;;;;;;9.00;2.37;;;10.20;52.90;;;;;;20814;6827;117836;-72
2022/11/24 07:38:32;;;;;;;10.10;3.30;;;9.90;54.60;;;;;;20593;6827;306190;-70
2022/11/24 07:41:01;;;;;;;11.67;3.20;;;9.90;55.50;;;;;;20588;6827;303070;-69
2022/11/24 07:43:26;;;;;;;10.07;3.20;;;10.10;54.80;;;;;;20585;6827;336220;-70
2022/11/24 07:45:51;;;;;;;7.17;3.17;;;10.30;54.60;;;;;;20567;6825;306789;-71
2022/11/24 07:48:17;;;;;;;9.10;2.78;;;10.40;54.10;;;;;;20579;6827;335721;-70
2022/11/24 07:50:43;;;;;;;6.53;2.30;;;10.50;53.90;;;;;;20794;6827;117678;-70
2022/11/24 07:53:08;;;;;;;10.13;2.77;;;10.30;54.10;;;;;;20792;6827;119049;-70
2022/11/24 07:55:34;;;;;;;9.73;3.00;;;9.90;55.70;;;;;;20568;6827;278950;-70
2022/11/24 07:58:01;;;;;;;9.93;2.90;;;9.90;56.30;;;;;;20566;6827;309743;-71
2022/11/24 08:00:26;;;;;;;10.37;3.27;;;10.20;55.30;;;;;;20590;6827;304405;-70
2022/11/24 08:02:52;;;;;;;6.05;2.25;;;10.30;55.00;;;;;;20810;6827;117437;-70
2022/11/24 08:05:18;;;;;;;8.23;2.60;;;10.20;55.00;;;;;;20802;6827;117854;-74
2022/11/24 08:07:43;;;;;;;8.97;3.13;;;9.90;56.50;;;;;;20577;6827;308341;-70
2022/11/24 08:10:09;;;;;;;11.80;3.20;;;9.90;57.10;;;;;;20587;6827;306456;-72
2022/11/24 08:12:34;;;;;;;9.03;3.17;;;10.10;55.80;;;;;;20597;6827;309922;-70
2022/11/24 08:15:00;;;;;;;9.83;3.23;;;10.30;55.70;;;;;;20597;6827;307167;-74
2022/11/24 08:17:26;;;;;;;6.62;2.53;;;10.50;55.60;;;;;;20813;6827;117802;-72
2022/11/24 08:19:52;;;;;;;6.07;2.40;;;10.00;56.10;;;;;;20762;6830;120085;-73
2022/11/24 08:22:19;;;;;;;11.10;3.53;;;9.90;57.00;;;;;;20445;6863;309070;-72
2022/11/24 08:24:47;;;;;;;8.37;3.27;;;10.00;57.50;;;;;;20464;6863;313209;-70
2022/11/24 08:27:10;;;;;;;7.13;2.80;;;10.20;56.80;;;;;;20510;6852;281985;-72
2022/11/24 08:29:35;;;;;;;8.35;3.22;;;10.40;56.30;;;;;;20460;6867;280610;-71
2022/11/24 08:32:02;;;;;;;7.07;2.40;;;10.40;56.80;;;;;;20704;6860;116631;-71
2022/11/24 08:34:27;;;;;;;7.30;2.93;;;10.40;56.10;;;;;;20483;6862;309619;-71
2022/11/24 08:36:53;;;;;;;40.03;22.40;;;10.30;56.20;;;;;;20685;6859;118222;-70
2022/11/24 08:39:19;;;;;;;30.43;22.03;;;10.10;56.10;;;;;;20707;6859;117668;-71
2022/11/24 08:41:45;;;;;;;36.30;21.35;;;9.80;57.60;;;;;;20674;6863;118265;-75
2022/11/24 08:44:14;;;;;;;19.47;12.63;;;9.50;58.60;;;;;;20711;6860;117732;-68
2022/11/24 08:46:36;;;;;;;11.83;4.87;;;9.30;58.70;;;;;;20431;6860;311035;-73
2022/11/24 08:49:02;;;;;;;10.98;5.57;;;9.40;59.20;;;;;;20468;6859;282227;-72
2022/11/24 08:51:28;;;;;;;10.40;7.20;;;9.70;58.90;;;;;;20439;6859;307948;-73
2022/11/24 08:53:57;;;;;;;7.30;3.57;;;9.90;58.30;;;;;;20700;6859;117440;-70
2022/11/24 08:56:24;;;;;;;10.60;5.07;;;10.00;57.70;;;;;;20490;6857;340079;-72
2022/11/24 08:58:49;;;;;;;8.07;5.40;;;10.00;57.70;;;;;;20684;6858;117230;-71
2022/11/24 09:01:15;;;;;;;8.03;4.00;;;9.60;59.00;;;;;;20701;6858;119837;-71
2022/11/24 09:03:41;;;;;;;10.37;3.73;;;9.60;59.00;;;;;;20689;6858;117270;-73
2022/11/24 09:06:07;;;;;;;4.20;3.23;;;9.40;59.60;;;;;;20706;6858;117882;-71
2022/11/24 09:08:34;;;;;;;9.40;4.37;;;9.30;60.10;;;;;;20501;6859;310136;-73
2022/11/24 09:10:59;;;;;;;7.87;4.75;;;9.50;60.90;;;;;;20493;6859;308379;-71
2022/11/24 09:13:25;;;;;;;9.48;3.62;;;9.90;60.60;;;;;;20695;6859;117174;-72
2022/11/24 09:15:50;;;;;;;6.07;3.43;;;10.00;59.20;;;;;;20478;6859;312355;-73
2022/11/24 09:18:17;;;;;;;6.33;3.00;;;10.10;59.10;;;;;;20505;6859;278636;-73
2022/11/24 09:20:42;;;;;;;5.45;2.87;;;10.50;58.90;;;;;;20499;6859;278767;-72
2022/11/24 09:23:08;;;;;;;5.70;2.40;;;10.80;58.60;;;;;;20718;6859;117652;-71
2022/11/24 09:25:33;;;;;;;5.17;2.00;;;10.80;58.50;;;;;;20701;6859;117791;-73
2022/11/24 09:28:00;;;;;;;3.30;2.08;;;10.80;60.00;;;;;;20721;6859;117472;-72
2022/11/24 09:30:26;;;;;;;4.40;1.90;;;10.80;60.00;;;;;;20716;6859;117272;-71
2022/11/24 09:32:52;;;;;;;4.80;1.90;;;10.80;60.20;;;;;;20713;6859;117465;-72
2022/11/24 09:35:19;;;;;;;4.73;2.43;;;10.90;60.30;;;;;;20483;6859;305049;-72
2022/11/24 09:37:47;;;;;;;4.67;2.43;;;11.10;59.70;;;;;;20475;6859;308196;-71
2022/11/24 09:40:14;;;;;;;3.43;1.90;;;11.60;58.50;;;;;;20705;6859;117108;-72
2022/11/24 09:42:41;;;;;;;5.40;2.40;;;11.70;57.90;;;;;;20501;6859;307548;-74
2022/11/24 09:45:10;;;;;;;4.07;2.20;;;11.70;56.60;;;;;;20711;6859;119795;-73
2022/11/24 09:48:02;;;;;;;12.50;7.80;;;11.70;56.50;;;;;;20459;6859;278723;-71
2022/11/24 09:50:31;;;;;;;9.47;5.33;;;11.70;55.80;;;;;;20473;6859;307777;-70
2022/11/24 09:53:09;;;;;;;5.97;3.33;;;11.90;55.60;;;;;;20491;6859;278290;-71
2022/11/24 09:55:47;;;;;;;5.68;2.72;;;12.00;55.10;;;;;;20460;6859;310811;-70
2022/11/24 09:58:26;;;;;;;4.87;2.83;;;12.20;54.70;;;;;;20475;6859;306972;-71
2022/11/24 10:00:51;;;;;;;6.62;5.82;;;12.30;54.30;;;;;;20502;6859;308282;-71
2022/11/24 10:03:24;;;;;;;4.80;3.47;;;12.40;54.30;;;;;;20503;6859;307407;-71
2022/11/24 10:05:51;;;;;;;4.43;2.50;;;12.40;54.20;;;;;;20357;6859;307865;-70
2022/11/24 10:08:26;;;;;;;5.57;2.60;;;12.40;54.20;;;;;;20700;6857;118400;-70
2022/11/24 10:10:55;;;;;;;4.30;2.80;;;12.10;54.50;;;;;;20489;6858;279556;-71
2022/11/24 10:13:27;;;;;;;2.75;2.35;;;12.10;54.90;;;;;;20495;6858;319032;-71
2022/11/24 10:15:57;;;;;;;4.03;1.70;;;11.90;54.80;;;;;;20700;6858;117867;-71
2022/11/24 10:18:39;;;;;;;4.93;2.10;;;11.90;54.70;;;;;;20485;6858;337844;-71
2022/11/24 10:21:21;;;;;;;4.03;2.20;;;11.90;55.10;;;;;;20695;6859;118410;-70
2022/11/24 10:24:00;;;;;;;3.42;1.87;;;11.70;55.40;;;;;;19504;7170;410640;-71
2022/11/24 10:26:29;;;;;;;3.47;1.80;;;11.70;55.60;;;;;;20616;6820;333596;-71
2022/11/24 10:28:54;;;;;;;3.67;1.50;;;11.90;54.90;;;;;;20826;6820;120855;-71
2022/11/24 10:31:23;;;;;;;2.77;1.53;;;11.80;55.10;;;;;;20647;6820;310922;-69
2022/11/24 10:33:49;;;;;;;2.10;1.40;;;11.80;55.80;;;;;;20832;6820;120165;-73
2022/11/24 10:36:31;;;;;;;1.00;0.90;;;11.70;55.90;;;;;;20868;6820;116469;-70
2022/11/24 10:39:00;;;;;;;2.70;1.20;;;11.60;56.50;;;;;;20837;6820;118298;-71
2022/11/24 10:41:35;;;;;;;2.00;0.93;;;11.40;57.00;;;;;;20846;6820;118931;-70
2022/11/24 10:44:00;;;;;;;1.50;0.80;;;11.40;57.50;;;;;;20774;6820;118365;-70
2022/11/24 10:46:26;;;;;;;3.27;2.23;;;11.40;57.90;;;;;;20655;6820;277157;-70
2022/11/24 10:48:51;;;;;;;2.40;1.00;;;11.60;56.60;;;;;;20544;6852;310288;-69
2022/11/24 10:51:30;;;;;;;1.50;0.90;;;12.00;55.40;;;;;;20535;6837;305422;-71
2022/11/24 10:54:05;;;;;;;2.53;1.07;;;12.20;54.20;;;;;;20373;6837;117579;-69
2022/11/24 10:56:37;;;;;;;0.60;0.60;;;12.10;54.10;;;;;;20746;6837;117850;-70
2022/11/24 10:59:22;;;;;;;1.20;0.80;;;11.70;54.70;;;;;;20561;6837;307951;-73
2022/11/24 11:01:48;;;;;;;1.80;0.90;;;11.70;54.90;;;;;;20506;6852;309868;-70
2022/11/24 11:04:14;;;;;;;1.63;0.80;;;11.90;54.80;;;;;;20560;6837;309453;-73
2022/11/24 11:06:39;;;;;;;0.57;0.57;;;12.00;54.90;;;;;;20740;6845;117712;-72
2022/11/24 11:09:05;;;;;;;2.13;1.00;;;11.80;55.00;;;;;;20559;6837;308006;-70
2022/11/24 11:11:31;;;;;;;1.10;0.50;;;11.70;55.50;;;;;;20761;6837;122420;-72
2022/11/24 11:14:02;;;;;;;1.70;0.80;;;11.60;55.70;;;;;;20548;6845;277967;-72
2022/11/24 11:16:34;;;;;;;1.17;0.90;;;11.60;56.40;;;;;;20548;6837;336288;-70
2022/11/24 11:19:00;;;;;;;1.53;0.80;;;12.00;56.70;;;;;;20763;6840;117790;-73
2022/11/24 11:21:25;;;;;;;1.13;0.90;;;12.00;56.70;;;;;;20615;6819;306907;-72
2022/11/24 11:23:51;;;;;;;0.77;0.77;;;12.10;56.80;;;;;;20649;6835;120112;-70
2022/11/24 11:29:42;;;;;;;1.03;0.70;;;12.00;56.10;;;;;;20754;6835;118131;-70
2022/11/24 11:32:24;;;;;;;2.43;1.17;;;11.80;56.10;;;;;;20555;6835;309237;-71
2022/11/24 11:34:49;;;;;;;1.40;0.90;;;11.80;56.00;;;;;;20774;6835;119236;-71
2022/11/24 11:37:15;;;;;;;1.52;1.25;;;11.70;56.00;;;;;;20774;6835;117198;-71
2022/11/24 11:39:41;;;;;;;1.20;0.87;;;11.50;56.40;;;;;;20743;6835;125790;-71
2022/11/24 11:42:30;;;;;;;0.97;0.97;;;11.10;57.10;;;;;;20763;6835;118311;-71
2022/11/24 11:44:56;;;;;;;2.33;0.90;;;11.10;57.10;;;;;;20666;6867;120910;-70
2022/11/24 11:47:25;;;;;;;2.15;1.10;;;10.90;57.40;;;;;;20459;6852;278175;-70
2022/11/24 11:49:50;;;;;;;3.20;1.27;;;11.10;57.00;;;;;;20448;6867;282147;-71
2022/11/24 11:52:32;;;;;;;3.35;1.37;;;11.60;56.90;;;;;;20465;6867;309040;-70
2022/11/24 11:55:10;;;;;;;3.40;1.60;;;12.00;56.00;;;;;;20450;6867;279995;-70
2022/11/24 11:57:45;;;;;;;4.37;1.43;;;12.30;55.20;;;;;;20650;6867;118388;-70
2022/11/24 12:00:11;;;;;;;1.77;1.10;;;12.30;55.10;;;;;;20651;6867;120089;-71
2022/11/24 12:02:52;;;;;;;2.43;1.47;;;12.10;55.50;;;;;;20454;6867;309062;-71
2022/11/24 12:05:54;;;;;;;2.20;1.20;;;12.20;54.30;;;;;;20644;6867;119444;-72
2022/11/24 12:08:39;;;;;;;3.63;1.70;;;12.10;54.30;;;;;;20480;6867;309111;-70
2022/11/24 12:11:12;;;;;;;3.53;1.60;;;12.40;52.90;;;;;;20456;6867;308053;-71
2022/11/24 12:14:14;;;;;;;3.10;1.90;;;12.40;52.90;;;;;;20662;6867;118523;-72
2022/11/24 12:16:44;;;;;;;2.77;1.47;;;11.80;53.90;;;;;;20680;6867;117519;-70
2022/11/24 12:19:12;;;;;;;2.73;1.30;;;11.80;53.90;;;;;;20677;6867;118470;-70
2022/11/24 12:22:01;;;;;;;6.00;3.60;;;11.50;54.40;;;;;;20437;6867;341381;-71
2022/11/24 12:24:36;;;;;;;5.20;4.72;;;11.60;54.70;;;;;;20462;6867;338376;-70
2022/11/24 12:27:12;;;;;;;3.60;3.00;;;12.00;54.50;;;;;;20473;6867;309117;-70
2022/11/24 12:29:54;;;;;;;4.90;1.60;;;12.30;53.60;;;;;;20653;6867;118204;-70
2022/11/24 12:32:49;;;;;;;2.20;1.30;;;12.20;53.60;;;;;;20664;6865;119158;-72
2022/11/24 12:35:14;;;;;;;3.50;1.50;;;11.90;54.30;;;;;;20481;6866;281354;-71
2022/11/24 12:37:43;;;;;;;2.92;1.70;;;12.10;53.10;;;;;;20409;6867;309154;-72
2022/11/24 12:40:19;;;;;;;3.20;1.70;;;12.40;52.00;;;;;;20471;6867;311694;-71
2022/11/24 12:42:50;;;;;;;3.63;1.60;;;12.60;51.60;;;;;;20656;6867;117650;-73
2022/11/24 12:45:17;;;;;;;5.90;1.80;;;12.60;52.00;;;;;;20428;6867;279201;-71
2022/11/24 12:48:17;;;;;;;4.85;2.08;;;12.70;51.60;;;;;;20428;6867;341280;-71
2022/11/24 12:50:47;;;;;;;3.70;1.60;;;12.90;50.80;;;;;;20657;6867;118718;-71
2022/11/24 12:53:15;;;;;;;3.70;1.50;;;12.80;51.20;;;;;;20645;6867;117900;-73